Saint Joseph, MO (64501)

2:49 PM CDT on August 31, 2015 (GMT -0500)
saint joseph missouri south site of city | | Change Station
CLOSE
Current Station
Personal Weather Station
Location: Saint Joseph, MO
Elevation: 1010 ft
Nearby Weather Stations

Elev 1010 ft 39.72 °N, 94.84 °W | Updated 12 seconds ago

Clear
Clear
89.9 °F
Feels Like 89 °F
N
4.3
Wind Variable Wind from SW
Gusts 10.5 mph

Today
High -- | Low -- °F
--% Chance of Precip.
Yesterday
High -- | Low -- °F
Precip. -- in
6:46 AM 7:52 PM
Waning Gibbous, 94% visible
Pressure 29.94 in
Visibility 10.0 miles
Clouds Few 4000 ft
Heat Index 89 °F
Dew Point 59 °F
Humidity 35%
Rainfall 0.00 in
Snow Depth Not available.
UV 9 out of 12
Pollen 9.90 out of 12
Air Quality Not available.
Flu Activity Not available.
METAR KSTJ 311853Z 20008KT 10SM FEW040 29/22 A2996 RMK AO2 SLP138 T02940217
Pressure 29.94 in
Visibility 10.0 miles
Clouds Few 4000 ft
Heat Index 89 °F
Dew Point 59 °F
Humidity 35%
Rainfall 0.00 in
Snow Depth Not available.
UV 9 out of 12
Pollen 9.90 out of 12
Air Quality Not available.
Flu Activity Not available.
METAR KSTJ 311853Z 20008KT 10SM FEW040 29/22 A2996 RMK AO2 SLP138 T02940217

10-Day Weather Forecast

×

Almanac

Astronomy

Aug. 31, 2015 Rise Set
Actual Time
Civil Twilight
Nautical Twilight
Astronomical Twilight
Moon
Length of Visible Light
Length of Day
Tomorrow will be .
, % of the Moon is Illuminated

Today's Extremes

State Highs State Lows

Community

WunderPhotos

Upload Photos

1,851,346 photos uploaded!

WunderBlogs® & News

Nearby

Air Quality

  Air Quality AQ Index Pollutant
Not available.

Snow Depth

Station Depth Elevation

Earthquake Activity

City Distance Mag. Time & Date
Minimum magnitude displayed is 2.5.

Coastal Water Temperatures

Place Temperature

Stations

Nearby Weather Stations

Station Location Temp. Windchill Dew Point Humidity Wind Precip. Elev Updated Type